createdAt,value
2018-08-22T00:02:21.913Z,6.27
2018-08-22T00:04:51.433Z,6.03
2018-08-22T00:07:24.315Z,5.70
2018-08-22T00:09:53.446Z,5.97
2018-08-22T00:12:26.400Z,5.50
2018-08-22T00:14:55.508Z,5.33
2018-08-22T00:17:28.427Z,5.47
2018-08-22T00:19:57.914Z,6.27
2018-08-22T00:22:31.001Z,6.37
2018-08-22T00:25:00.215Z,9.63
2018-08-22T00:27:33.603Z,10.50
2018-08-22T00:30:02.904Z,9.60
2018-08-22T00:32:36.256Z,9.23
2018-08-22T00:35:05.581Z,7.57
2018-08-22T00:37:38.748Z,7.67
2018-08-22T00:40:08.265Z,7.40
2018-08-22T00:42:41.259Z,8.00
2018-08-22T00:45:10.499Z,7.43
2018-08-22T00:47:42.750Z,7.77
2018-08-22T00:50:11.963Z,6.60
2018-08-22T00:52:48.667Z,7.17
2018-08-22T00:55:17.839Z,6.43
2018-08-22T00:57:48.868Z,6.77
2018-08-22T01:00:18.130Z,6.50
2018-08-22T01:02:50.960Z,6.70
2018-08-22T01:05:20.338Z,6.80
2018-08-22T01:07:56.983Z,6.13
2018-08-22T01:10:26.398Z,5.00
2018-08-22T01:12:56.580Z,6.07
2018-08-22T01:15:25.746Z,5.97
2018-08-22T01:18:02.757Z,6.00
2018-08-22T01:20:31.950Z,5.83
2018-08-22T01:23:02.313Z,6.37
2018-08-22T01:25:31.923Z,6.13
2018-08-22T01:28:05.005Z,6.20
2018-08-22T01:30:34.172Z,5.57
2018-08-22T01:33:10.598Z,5.70
2018-08-22T01:35:39.788Z,5.83
2018-08-22T01:38:09.985Z,5.60
2018-08-22T01:40:39.437Z,6.23
2018-08-22T01:43:14.644Z,6.03
2018-08-22T01:45:43.790Z,6.87
2018-08-22T01:48:16.422Z,6.33
2018-08-22T01:50:45.534Z,6.43
2018-08-22T01:53:18.509Z,5.53
2018-08-22T01:55:47.905Z,6.43
2018-08-22T01:58:20.929Z,6.70
2018-08-22T02:00:50.116Z,5.73
2018-08-22T02:03:22.793Z,5.87
2018-08-22T02:05:52.398Z,6.30
2018-08-22T02:08:26.087Z,6.47
2018-08-22T02:10:55.570Z,6.10
2018-08-22T02:13:28.989Z,5.83
2018-08-22T02:15:58.506Z,6.33
2018-08-22T02:18:29.918Z,6.23
2018-08-22T02:20:59.684Z,6.00
2018-08-22T02:23:33.099Z,6.17
2018-08-22T02:26:02.633Z,5.93
2018-08-22T02:28:35.522Z,6.40
2018-08-22T02:31:05.203Z,6.67
2018-08-22T02:33:37.667Z,6.43
2018-08-22T02:36:07.270Z,7.10
2018-08-22T02:38:40.041Z,6.67
2018-08-22T02:41:09.805Z,6.17
2018-08-22T02:43:42.523Z,6.43
2018-08-22T02:46:11.991Z,6.77
2018-08-22T02:48:49.155Z,6.40
2018-08-22T02:51:18.633Z,6.00
2018-08-22T02:53:48.137Z,5.77
2018-08-22T02:56:17.666Z,7.07
2018-08-22T02:58:49.279Z,6.97
2018-08-22T03:01:18.819Z,5.90
2018-08-22T03:03:52.023Z,6.33
2018-08-22T03:06:21.816Z,5.67
2018-08-22T03:08:54.617Z,6.10
2018-08-22T03:11:24.133Z,5.70
2018-08-22T03:13:58.102Z,5.63
2018-08-22T03:16:27.823Z,5.60
2018-08-22T03:19:01.015Z,6.43
2018-08-22T03:21:30.817Z,6.87
2018-08-22T03:24:04.028Z,6.27
2018-08-22T03:26:33.586Z,7.10
2018-08-22T03:29:06.414Z,6.40
2018-08-22T03:31:36.007Z,6.13
2018-08-22T03:34:09.021Z,6.30
2018-08-22T03:36:38.502Z,7.23
2018-08-22T03:39:12.312Z,6.80
2018-08-22T03:41:42.078Z,6.40
2018-08-22T03:44:14.926Z,6.53
2018-08-22T03:46:44.423Z,7.10
2018-08-22T03:49:16.821Z,6.87
2018-08-22T03:51:46.293Z,7.00
2018-08-22T03:54:19.169Z,6.90
2018-08-22T03:56:49.021Z,7.30
2018-08-22T03:59:22.034Z,7.63
2018-08-22T04:01:51.572Z,7.87
2018-08-22T04:04:24.404Z,9.20
2018-08-22T04:06:53.999Z,9.33
2018-08-22T04:09:26.069Z,10.30
2018-08-22T04:11:55.594Z,9.23
2018-08-22T04:14:28.786Z,10.17
2018-08-22T04:16:58.364Z,10.03
2018-08-22T04:19:31.505Z,10.57
2018-08-22T04:22:01.376Z,10.37
2018-08-22T04:24:34.094Z,10.50
2018-08-22T04:27:03.402Z,9.40
2018-08-22T04:29:35.813Z,10.50
2018-08-22T04:32:05.532Z,10.03
2018-08-22T04:34:36.782Z,10.87
2018-08-22T04:37:05.911Z,10.27
2018-08-22T04:39:38.714Z,10.00
2018-08-22T04:42:07.857Z,11.87
2018-08-22T04:44:40.789Z,11.70
2018-08-22T04:47:10.176Z,12.70
2018-08-22T04:49:46.836Z,12.80
2018-08-22T04:52:16.322Z,13.07
2018-08-22T04:54:46.696Z,13.47
2018-08-22T04:57:15.791Z,14.17
2018-08-22T04:59:53.450Z,14.77
2018-08-22T05:02:22.638Z,14.23
2018-08-22T05:04:51.752Z,14.50
2018-08-22T05:07:21.515Z,15.63
2018-08-22T05:09:54.451Z,15.07
2018-08-22T05:12:23.618Z,13.80
2018-08-22T05:15:00.612Z,14.67
2018-08-22T05:17:29.792Z,14.40
2018-08-22T05:20:00.378Z,14.67
2018-08-22T05:22:29.504Z,14.23
2018-08-22T05:25:07.023Z,14.70
2018-08-22T05:27:36.560Z,15.60
2018-08-22T05:30:06.300Z,18.57
2018-08-22T05:32:35.424Z,19.30
2018-08-22T05:35:09.245Z,18.87
2018-08-22T05:37:38.630Z,19.83
2018-08-22T05:40:15.564Z,19.03
2018-08-22T05:42:44.728Z,20.50
2018-08-22T05:45:14.352Z,19.93
2018-08-22T05:47:43.761Z,19.30
2018-08-22T05:50:20.490Z,19.57
2018-08-22T05:52:50.502Z,19.67
2018-08-22T05:55:19.892Z,20.03
2018-08-22T05:57:49.056Z,19.07
2018-08-22T06:00:22.134Z,18.93
2018-08-22T06:02:51.401Z,18.70
2018-08-22T06:05:24.061Z,21.67
2018-08-22T06:07:54.634Z,19.70
2018-08-22T06:10:27.717Z,18.63
2018-08-22T06:12:56.910Z,18.90
2018-08-22T06:15:28.416Z,19.83
2018-08-22T06:17:57.800Z,21.63
2018-08-22T06:20:34.443Z,24.17
2018-08-22T06:23:03.996Z,23.63
2018-08-22T06:25:33.925Z,22.90
2018-08-22T06:28:03.129Z,22.23
2018-08-22T06:30:36.458Z,21.80
2018-08-22T06:33:05.813Z,20.80
2018-08-22T06:35:38.333Z,24.20
2018-08-22T06:38:08.800Z,24.30
2018-08-22T06:40:42.045Z,23.83
2018-08-22T06:43:11.243Z,22.80
2018-08-22T06:45:42.864Z,25.40
2018-08-22T06:48:12.212Z,27.83
2018-08-22T06:50:49.918Z,25.53
2018-08-22T06:53:19.810Z,27.70
2018-08-22T06:55:49.044Z,27.53
2018-08-22T06:58:18.204Z,26.27
2018-08-22T07:00:50.507Z,30.57
2018-08-22T07:03:20.031Z,29.47
2018-08-22T07:05:57.592Z,27.97
2018-08-22T07:08:27.888Z,29.43
2018-08-22T07:10:59.398Z,29.40
2018-08-22T07:13:29.157Z,29.17
2018-08-22T07:16:00.871Z,30.87
2018-08-22T07:18:30.483Z,30.43
2018-08-22T07:21:03.476Z,31.03
2018-08-22T07:23:33.112Z,29.43
2018-08-22T07:26:06.270Z,33.00
2018-08-22T07:28:35.517Z,34.33
2018-08-22T07:31:07.951Z,30.67
2018-08-22T07:33:37.268Z,31.80
2018-08-22T07:36:09.620Z,29.60
2018-08-22T07:38:39.184Z,30.17
2018-08-22T07:41:16.253Z,29.80
2018-08-22T07:43:45.652Z,30.97
2018-08-22T07:46:17.840Z,29.87
2018-08-22T07:48:47.065Z,30.43
2018-08-22T07:51:18.895Z,30.20
2018-08-22T07:53:48.658Z,29.27
2018-08-22T07:56:22.341Z,28.87
2018-08-22T07:59:03.830Z,29.10
2018-08-22T08:01:33.078Z,27.80
2018-08-22T08:04:02.628Z,27.07
2018-08-22T08:06:31.867Z,28.07
2018-08-22T08:09:01.116Z,27.97
2018-08-22T08:11:31.907Z,30.23
2018-08-22T08:14:01.143Z,30.20
2018-08-22T08:16:30.412Z,28.10
2018-08-22T08:18:59.926Z,29.73
2018-08-22T08:21:36.584Z,28.90
2018-08-22T08:24:06.148Z,30.00
2018-08-22T08:26:35.343Z,29.40
2018-08-22T08:29:04.662Z,28.57
2018-08-22T08:31:37.352Z,32.23
2018-08-22T08:34:06.569Z,31.30
2018-08-22T08:36:39.715Z,30.70
2018-08-22T08:39:11.556Z,30.67
2018-08-22T08:41:41.239Z,31.73
2018-08-22T08:44:10.506Z,29.87
2018-08-22T08:46:42.857Z,31.90
2018-08-22T08:49:12.080Z,30.10
2018-08-22T08:51:58.124Z,30.13
2018-08-22T08:54:27.577Z,29.47
2018-08-22T08:56:56.914Z,27.70
2018-08-22T08:59:26.356Z,27.83
2018-08-22T09:01:55.589Z,28.23
2018-08-22T09:04:24.820Z,28.47
2018-08-22T09:06:54.762Z,27.53
2018-08-22T09:09:23.929Z,21.63
2018-08-22T09:12:01.307Z,18.60
2018-08-22T09:14:30.914Z,22.67
2018-08-22T09:17:00.536Z,25.13
2018-08-22T09:19:29.759Z,24.37
2018-08-22T09:22:04.011Z,23.97
2018-08-22T09:24:33.194Z,26.53
2018-08-22T09:27:10.890Z,26.13
2018-08-22T09:29:40.385Z,22.97
2018-08-22T09:32:10.137Z,25.73
2018-08-22T09:34:41.505Z,25.90
2018-08-22T09:37:14.397Z,24.17
2018-08-22T09:39:43.637Z,27.97
2018-08-22T09:42:15.981Z,24.20
2018-08-22T09:44:45.540Z,22.70
2018-08-22T09:47:18.445Z,23.50
2018-08-22T09:49:47.753Z,25.60
2018-08-22T09:52:20.098Z,24.30
2018-08-22T09:55:01.376Z,21.00
2018-08-22T09:57:31.586Z,22.37
2018-08-22T10:00:00.932Z,22.80
2018-08-22T10:02:30.332Z,24.30
2018-08-22T10:05:00.819Z,21.67
2018-08-22T10:07:32.245Z,20.33
2018-08-22T10:10:01.710Z,18.50
2018-08-22T10:12:31.225Z,14.93
2018-08-22T10:15:00.426Z,16.53
2018-08-22T10:17:32.795Z,18.63
2018-08-22T10:20:02.292Z,17.60
2018-08-22T10:22:35.300Z,16.00
2018-08-22T10:25:04.617Z,18.57
2018-08-22T10:27:37.459Z,17.93
2018-08-22T10:30:07.270Z,21.47
2018-08-22T10:32:42.339Z,18.73
2018-08-22T10:35:11.609Z,16.57
2018-08-22T10:37:42.475Z,22.83
2018-08-22T10:40:12.372Z,17.50
2018-08-22T10:42:46.624Z,20.37
2018-08-22T10:45:16.043Z,17.30
2018-08-22T10:47:47.394Z,16.53
2018-08-22T10:50:16.748Z,17.73
2018-08-22T10:52:49.000Z,20.10
2018-08-22T10:55:18.478Z,19.03
2018-08-22T10:57:51.480Z,16.83
2018-08-22T11:00:20.704Z,16.27
2018-08-22T11:02:53.927Z,18.57
2018-08-22T11:05:23.407Z,17.67
2018-08-22T11:07:56.719Z,19.03
2018-08-22T11:10:25.997Z,17.93
2018-08-22T11:12:59.587Z,18.57
2018-08-22T11:15:28.991Z,17.23
2018-08-22T11:18:05.729Z,19.03
2018-08-22T11:20:39.359Z,15.77
2018-08-22T11:23:19.449Z,13.73
2018-08-22T11:26:00.187Z,15.97
2018-08-22T11:28:40.149Z,17.93
2018-08-22T11:31:20.490Z,15.57
2018-08-22T11:34:00.581Z,13.37
2018-08-22T11:36:28.599Z,13.33
2018-08-22T11:38:57.800Z,15.67
2018-08-22T11:41:26.964Z,19.43
2018-08-22T11:43:56.582Z,18.57
2018-08-22T11:46:25.789Z,19.80
2018-08-22T11:48:54.985Z,18.73
2018-08-22T11:51:24.271Z,14.37
2018-08-22T11:53:53.578Z,13.10
2018-08-22T11:56:23.357Z,17.83
2018-08-22T11:58:52.684Z,18.27
2018-08-22T12:01:25.456Z,19.27
2018-08-22T12:03:54.664Z,19.73
2018-08-22T12:06:25.808Z,21.17
2018-08-22T12:08:54.975Z,17.40
2018-08-22T12:11:28.249Z,15.53
2018-08-22T12:13:57.705Z,19.17
2018-08-22T12:16:30.840Z,15.00
2018-08-22T12:19:00.054Z,20.77
2018-08-22T12:21:36.681Z,20.40
2018-08-22T12:24:06.376Z,18.67
2018-08-22T12:26:36.092Z,16.27
2018-08-22T12:29:05.689Z,18.50
2018-08-22T12:31:38.594Z,16.47
2018-08-22T12:34:07.827Z,20.30
2018-08-22T12:36:40.239Z,23.10
2018-08-22T12:39:09.737Z,18.37
2018-08-22T12:41:42.650Z,19.70
2018-08-22T12:44:12.022Z,20.17
2018-08-22T12:46:48.496Z,16.73
2018-08-22T12:49:17.755Z,17.60
2018-08-22T12:51:47.018Z,19.53
2018-08-22T12:54:16.326Z,22.53
2018-08-22T12:56:52.830Z,20.27
2018-08-22T12:59:22.100Z,19.60
2018-08-22T13:01:53.603Z,19.00
2018-08-22T13:04:22.850Z,18.23
2018-08-22T13:06:55.922Z,18.20
2018-08-22T13:09:25.454Z,21.20
2018-08-22T13:11:57.786Z,19.70
2018-08-22T13:14:27.028Z,21.13
2018-08-22T13:17:01.788Z,19.47
2018-08-22T13:19:30.919Z,18.83
2018-08-22T13:22:04.078Z,18.33
2018-08-22T13:24:33.563Z,20.13
2018-08-22T13:27:08.106Z,20.90
2018-08-22T13:29:37.320Z,19.23
2018-08-22T13:32:10.426Z,23.67
2018-08-22T13:34:40.160Z,21.27
2018-08-22T13:37:13.467Z,19.97
2018-08-22T13:39:42.710Z,20.83
2018-08-22T13:42:15.999Z,20.53
2018-08-22T13:44:45.453Z,25.77
2018-08-22T13:47:18.223Z,20.37
2018-08-22T13:49:47.420Z,17.90
2018-08-22T13:52:20.012Z,19.13
2018-08-22T13:54:49.511Z,19.90
2018-08-22T13:57:22.338Z,19.87
2018-08-22T13:59:51.563Z,20.80
2018-08-22T14:02:24.400Z,18.30
2018-08-22T14:04:53.550Z,20.00
2018-08-22T14:07:30.022Z,20.83
2018-08-22T14:09:59.456Z,18.97
2018-08-22T14:12:28.711Z,17.33
2018-08-22T14:14:58.030Z,15.43
2018-08-22T14:17:34.597Z,13.83
2018-08-22T14:20:03.980Z,19.30
2018-08-22T14:22:33.284Z,18.27
2018-08-22T14:25:02.961Z,15.47
2018-08-22T14:27:35.902Z,16.10
2018-08-22T14:30:06.155Z,16.87
2018-08-22T14:32:37.657Z,16.50
2018-08-22T14:35:07.117Z,14.40
2018-08-22T14:37:40.370Z,13.60
2018-08-22T14:40:09.969Z,11.27
2018-08-22T14:42:43.557Z,14.23
2018-08-22T14:45:12.796Z,15.07
2018-08-22T14:47:45.587Z,15.30
2018-08-22T14:50:15.261Z,13.53
2018-08-22T14:52:51.953Z,12.93
2018-08-22T14:55:21.178Z,13.57
2018-08-22T14:57:50.974Z,10.67
2018-08-22T15:00:20.181Z,11.07
2018-08-22T15:02:53.613Z,10.53
2018-08-22T15:05:22.749Z,10.97
2018-08-22T15:07:55.936Z,10.43
2018-08-22T15:10:25.984Z,11.30
2018-08-22T15:13:07.854Z,11.57
2018-08-22T15:15:37.442Z,11.40
2018-08-22T15:18:07.315Z,11.80
2018-08-22T15:20:36.558Z,11.50
2018-08-22T15:23:06.103Z,13.17
2018-08-22T15:25:36.580Z,10.80
2018-08-22T15:28:07.644Z,10.07
2018-08-22T15:30:37.764Z,10.90
2018-08-22T15:33:14.534Z,9.60
2018-08-22T15:35:43.881Z,9.27
2018-08-22T15:38:16.336Z,10.10
2018-08-22T15:40:47.149Z,8.73
2018-08-22T15:43:16.660Z,9.83
2018-08-22T15:45:45.937Z,11.43
2018-08-22T15:48:22.941Z,9.53
2018-08-22T15:50:52.206Z,10.33
2018-08-22T15:53:25.357Z,8.87
2018-08-22T15:55:55.114Z,7.53
2018-08-22T15:58:28.330Z,8.53
2018-08-22T16:00:57.728Z,9.20
2018-08-22T16:03:31.503Z,7.53
2018-08-22T16:06:00.794Z,7.90
2018-08-22T16:08:37.349Z,8.97
2018-08-22T16:11:07.941Z,8.90
2018-08-22T16:13:38.357Z,8.00
2018-08-22T16:16:08.584Z,8.17
2018-08-22T16:18:45.267Z,9.50
2018-08-22T16:21:14.495Z,7.10
2018-08-22T16:23:44.889Z,7.07
2018-08-22T16:26:14.379Z,7.43
2018-08-22T16:28:55.441Z,6.90
2018-08-22T16:31:29.773Z,6.73
2018-08-22T16:33:59.131Z,6.70
2018-08-22T16:36:29.236Z,7.43
2018-08-22T16:38:59.515Z,6.83
2018-08-22T16:41:28.751Z,6.57
2018-08-22T16:43:59.176Z,5.67
2018-08-22T16:46:28.705Z,6.47
2018-08-22T16:49:01.914Z,6.40
2018-08-22T16:51:31.090Z,7.07
2018-08-22T16:54:09.190Z,6.97
2018-08-22T16:56:38.708Z,7.40
2018-08-22T16:59:13.852Z,7.47
2018-08-22T17:01:46.707Z,8.07
2018-08-22T17:04:16.474Z,6.87
2018-08-22T17:06:45.968Z,6.33
2018-08-22T17:09:18.612Z,6.33
2018-08-22T17:11:48.263Z,6.33
2018-08-22T17:14:19.147Z,6.73
2018-08-22T17:16:48.452Z,6.80
2018-08-22T17:19:25.715Z,6.53
2018-08-22T17:21:54.923Z,6.70
2018-08-22T17:24:25.160Z,6.30
2018-08-22T17:26:54.843Z,5.80
2018-08-22T17:29:31.967Z,5.77
2018-08-22T17:32:04.470Z,6.90
2018-08-22T17:34:34.099Z,6.53
2018-08-22T17:37:07.663Z,5.70
2018-08-22T17:39:37.242Z,5.53
2018-08-22T17:42:06.570Z,5.97
2018-08-22T17:44:39.445Z,6.30
2018-08-22T17:47:08.999Z,6.50
2018-08-22T17:49:55.861Z,6.60
2018-08-22T17:52:25.416Z,7.20
2018-08-22T17:55:11.530Z,5.40
2018-08-22T17:57:52.153Z,6.17
2018-08-22T18:00:21.778Z,6.57
2018-08-22T18:02:53.693Z,6.27
2018-08-22T18:05:23.062Z,6.87
2018-08-22T18:07:56.374Z,4.93
2018-08-22T18:10:26.075Z,6.20
2018-08-22T18:13:07.695Z,6.27
2018-08-22T18:15:37.244Z,5.13
2018-08-22T18:18:07.740Z,6.50
2018-08-22T18:20:42.160Z,5.23
2018-08-22T18:23:11.909Z,6.20
2018-08-22T18:25:47.528Z,6.63
2018-08-22T18:28:16.969Z,8.00
2018-08-22T18:30:46.900Z,5.73
2018-08-22T18:33:19.122Z,5.90
2018-08-22T18:35:48.727Z,5.00
2018-08-22T18:38:21.836Z,5.50
2018-08-22T18:41:02.349Z,5.17
2018-08-22T18:43:31.738Z,5.37
2018-08-22T18:46:06.420Z,5.33
2018-08-22T18:48:36.220Z,5.43
2018-08-22T18:51:05.623Z,5.37
2018-08-22T18:53:35.258Z,5.30
2018-08-22T18:56:14.268Z,4.40
2018-08-22T18:58:43.706Z,5.63
2018-08-22T19:01:19.283Z,4.90
2018-08-22T19:03:49.164Z,6.40
2018-08-22T19:06:18.597Z,5.77
2018-08-22T19:08:47.840Z,5.57
2018-08-22T19:11:17.695Z,6.37
2018-08-22T19:13:46.996Z,6.73
2018-08-22T19:16:16.368Z,6.40
2018-08-22T19:18:46.135Z,6.47
2018-08-22T19:21:15.862Z,6.23
2018-08-22T19:23:50.270Z,5.77
2018-08-22T19:26:20.264Z,7.60
2018-08-22T19:28:57.479Z,5.77
2018-08-22T19:31:27.214Z,5.90
2018-08-22T19:33:56.426Z,5.50
2018-08-22T19:36:25.696Z,6.00
2018-08-22T19:38:55.199Z,6.43
2018-08-22T19:41:30.967Z,6.47
2018-08-22T19:44:00.189Z,6.07
2018-08-22T19:46:30.572Z,6.30
2018-08-22T19:49:00.776Z,7.63
2018-08-22T19:51:30.508Z,7.37
2018-08-22T19:54:04.753Z,7.10
2018-08-22T19:56:34.207Z,7.57
2018-08-22T19:59:04.332Z,7.20
2018-08-22T20:01:34.901Z,7.30
2018-08-22T20:04:04.177Z,7.67
2018-08-22T20:06:33.506Z,6.83
2018-08-22T20:09:10.264Z,6.67
2018-08-22T20:11:39.772Z,6.60
2018-08-22T20:14:09.053Z,5.80
2018-08-22T20:16:38.836Z,7.90
2018-08-22T20:19:11.158Z,6.93
2018-08-22T20:21:42.072Z,6.90
2018-08-22T20:24:15.187Z,6.97
2018-08-22T20:26:51.499Z,7.40
2018-08-22T20:29:21.714Z,7.23
2018-08-22T20:31:52.136Z,7.33
2018-08-22T20:34:21.402Z,7.87
2018-08-22T20:36:50.653Z,7.57
2018-08-22T20:39:21.166Z,7.83
2018-08-22T20:41:55.948Z,7.60
2018-08-22T20:44:25.164Z,7.20
2018-08-22T20:46:54.697Z,7.67
2018-08-22T20:49:24.235Z,8.17
2018-08-22T20:51:53.532Z,7.10
2018-08-22T20:54:26.732Z,8.30
2018-08-22T20:57:01.218Z,7.80
2018-08-22T20:59:30.842Z,7.37
2018-08-22T21:02:06.215Z,7.87
2018-08-22T21:04:36.768Z,8.13
2018-08-22T21:07:06.422Z,8.33
2018-08-22T21:09:35.747Z,8.13
2018-08-22T21:12:05.431Z,8.47
2018-08-22T21:14:35.621Z,8.70
2018-08-22T21:17:05.084Z,7.93
2018-08-22T21:19:38.438Z,8.53
2018-08-22T21:22:17.451Z,9.13
2018-08-22T21:31:41.102Z,8.33
2018-08-22T21:34:15.423Z,9.40
2018-08-22T21:36:46.584Z,9.97
2018-08-22T21:39:21.058Z,9.63
2018-08-22T21:41:50.467Z,9.13
2018-08-22T21:44:20.995Z,9.10
2018-08-22T21:47:00.667Z,10.50
2018-08-22T21:49:30.444Z,10.07
2018-08-22T21:52:01.052Z,10.83
2018-08-22T21:54:30.884Z,10.50
2018-08-22T21:57:00.675Z,10.70
2018-08-22T21:59:30.012Z,10.53
2018-08-22T22:02:04.760Z,11.57
2018-08-22T22:04:35.057Z,11.00
2018-08-22T22:07:05.343Z,10.47
2018-08-22T22:09:35.405Z,10.60
2018-08-22T22:12:05.300Z,11.57
2018-08-22T22:14:35.637Z,11.13
2018-08-22T22:17:08.787Z,10.63
2018-08-22T22:19:38.040Z,10.60
2018-08-22T22:22:11.213Z,10.53
2018-08-22T22:25:17.370Z,10.97
2018-08-22T22:27:46.892Z,12.40
2018-08-22T22:30:16.417Z,10.33
2018-08-22T22:32:45.695Z,12.10
2018-08-22T22:35:24.855Z,10.70
2018-08-22T22:37:59.525Z,10.50
2018-08-22T22:40:30.356Z,11.37
2018-08-22T22:43:01.018Z,10.87
2018-08-22T22:45:30.246Z,10.33
2018-08-22T22:47:59.621Z,10.50
2018-08-22T22:50:33.179Z,10.77
2018-08-22T22:53:02.536Z,9.87
2018-08-22T22:55:31.787Z,10.63
2018-08-22T22:58:02.904Z,9.80
2018-08-22T23:00:32.419Z,10.27
2018-08-22T23:03:06.653Z,10.33
2018-08-22T23:05:36.671Z,10.83
2018-08-22T23:08:05.875Z,10.67
2018-08-22T23:10:35.100Z,10.87
2018-08-22T23:13:04.623Z,11.13
2018-08-22T23:15:35.558Z,10.80
2018-08-22T23:18:04.859Z,11.40
2018-08-22T23:20:39.763Z,10.77
2018-08-22T23:23:24.943Z,11.27
2018-08-22T23:25:55.434Z,11.60
2018-08-22T23:28:24.643Z,11.57
2018-08-22T23:30:53.869Z,11.80
2018-08-22T23:33:23.546Z,10.43
2018-08-22T23:35:52.774Z,11.23
2018-08-22T23:38:26.930Z,11.43
2018-08-22T23:40:56.631Z,11.83
2018-08-22T23:43:25.938Z,12.73
2018-08-22T23:45:57.940Z,11.90
2018-08-22T23:48:34.669Z,11.80
2018-08-22T23:51:05.319Z,12.00
2018-08-22T23:53:40.201Z,11.87
2018-08-22T23:56:22.340Z,12.03
2018-08-22T23:58:59.263Z,11.80
